createdAt,value
2019-02-24T00:02:13.450Z,6.47
2019-02-24T00:04:43.995Z,6.27
2019-02-24T00:07:14.866Z,6.67
2019-02-24T00:09:45.939Z,6.33
2019-02-24T00:12:16.559Z,6.27
2019-02-24T00:14:47.088Z,6.53
2019-02-24T00:17:17.620Z,5.83
2019-02-24T00:19:50.741Z,6.37
2019-02-24T00:22:21.242Z,5.40
2019-02-24T00:24:51.775Z,6.17
2019-02-24T00:27:22.286Z,6.37
2019-02-24T00:29:52.803Z,6.93
2019-02-24T00:32:23.372Z,6.20
2019-02-24T00:34:54.259Z,6.70
2019-02-24T00:37:24.748Z,6.17
2019-02-24T00:39:55.301Z,6.37
2019-02-24T00:42:25.837Z,6.27
2019-02-24T00:44:56.367Z,6.67
2019-02-24T00:47:26.856Z,6.30
2019-02-24T00:49:57.387Z,6.70
2019-02-24T00:52:27.890Z,6.07
2019-02-24T00:54:58.428Z,6.57
2019-02-24T00:57:28.951Z,6.27
2019-02-24T00:59:59.484Z,6.67
2019-02-24T01:02:30.047Z,6.63
2019-02-24T01:05:00.731Z,6.03
2019-02-24T01:07:31.361Z,7.00
2019-02-24T01:10:02.001Z,6.17
2019-02-24T01:12:32.842Z,7.10
2019-02-24T01:15:03.358Z,6.73
2019-02-24T01:17:33.860Z,7.37
2019-02-24T01:20:04.586Z,6.20
2019-02-24T01:22:35.098Z,6.67
2019-02-24T01:25:05.741Z,6.92
2019-02-24T01:27:36.389Z,6.50
2019-02-24T01:30:07.415Z,7.00
2019-02-24T01:32:38.038Z,6.40
2019-02-24T01:35:08.704Z,6.60
2019-02-24T01:37:39.198Z,6.43
2019-02-24T01:40:09.811Z,6.70
2019-02-24T01:42:40.607Z,6.83
2019-02-24T01:45:11.147Z,6.80
2019-02-24T01:47:41.653Z,6.50
2019-02-24T01:50:12.377Z,7.30
2019-02-24T01:52:42.821Z,6.57
2019-02-24T01:55:13.321Z,6.77
2019-02-24T01:57:43.871Z,7.12
2019-02-24T02:00:14.395Z,6.80
2019-02-24T02:02:44.920Z,6.77
2019-02-24T02:05:15.427Z,6.30
2019-02-24T02:07:46.049Z,6.57
2019-02-24T02:10:16.590Z,6.43
2019-02-24T02:12:47.323Z,7.27
2019-02-24T02:15:18.036Z,7.53
2019-02-24T02:17:48.671Z,7.10
2019-02-24T02:20:20.055Z,6.87
2019-02-24T02:22:51.443Z,7.67
2019-02-24T02:25:21.987Z,7.70
2019-02-24T02:27:52.534Z,7.60
2019-02-24T02:30:23.061Z,7.73
2019-02-24T02:32:53.598Z,8.43
2019-02-24T02:35:24.300Z,7.60
2019-02-24T02:37:54.783Z,6.93
2019-02-24T02:40:25.309Z,7.93
2019-02-24T02:42:55.795Z,7.77
2019-02-24T02:45:30.232Z,8.17
2019-02-24T02:48:00.786Z,7.67
2019-02-24T02:50:31.333Z,8.00
2019-02-24T02:53:01.938Z,7.63
2019-02-24T02:55:32.432Z,8.60
2019-02-24T02:58:02.997Z,8.88
2019-02-24T03:00:34.705Z,8.50
2019-02-24T03:03:05.200Z,8.17
2019-02-24T03:05:35.736Z,9.07
2019-02-24T03:08:08.929Z,8.40
2019-02-24T03:10:39.648Z,7.93
2019-02-24T03:13:10.150Z,7.73
2019-02-24T03:15:40.666Z,9.07
2019-02-24T03:18:11.208Z,8.67
2019-02-24T03:20:41.847Z,8.23
2019-02-24T03:23:12.521Z,8.00
2019-02-24T03:25:43.083Z,7.97
2019-02-24T03:28:13.596Z,8.53
2019-02-24T03:30:44.122Z,8.57
2019-02-24T03:33:14.641Z,8.70
2019-02-24T03:35:45.260Z,8.90
2019-02-24T03:38:15.763Z,9.00
2019-02-24T03:40:46.279Z,8.97
2019-02-24T03:43:17.306Z,9.27
2019-02-24T03:45:48.187Z,8.93
2019-02-24T03:48:19.576Z,9.47
2019-02-24T03:50:51.008Z,9.60
2019-02-24T03:53:21.508Z,9.63
2019-02-24T03:55:52.540Z,9.37
2019-02-24T03:58:23.209Z,8.97
2019-02-24T04:00:53.767Z,9.03
2019-02-24T04:03:24.599Z,9.75
2019-02-24T04:05:59.248Z,9.80
2019-02-24T04:08:30.134Z,9.13
2019-02-24T04:11:01.126Z,9.43
2019-02-24T04:13:50.945Z,9.67
2019-02-24T04:16:21.587Z,9.50
2019-02-24T04:18:52.221Z,9.80
2019-02-24T04:21:22.936Z,9.13
2019-02-24T04:23:53.669Z,9.27
2019-02-24T04:26:24.175Z,9.77
2019-02-24T04:28:54.736Z,9.53
2019-02-24T04:31:25.252Z,9.57
2019-02-24T04:33:55.751Z,9.60
2019-02-24T04:36:26.281Z,10.10
2019-02-24T04:38:56.788Z,9.28
2019-02-24T04:41:27.365Z,9.60
2019-02-24T04:43:58.067Z,9.37
2019-02-24T04:46:28.601Z,9.17
2019-02-24T04:48:59.113Z,9.78
2019-02-24T04:51:29.653Z,9.87
2019-02-24T04:54:00.171Z,9.57
2019-02-24T04:56:30.723Z,9.80
2019-02-24T04:59:01.224Z,9.07
2019-02-24T05:01:31.793Z,9.33
2019-02-24T05:04:02.317Z,9.30
2019-02-24T05:06:33.026Z,9.37
2019-02-24T05:09:04.266Z,10.40
2019-02-24T05:11:34.827Z,9.70
2019-02-24T05:14:05.635Z,10.05
2019-02-24T05:16:36.176Z,9.13
2019-02-24T05:19:06.721Z,9.80
2019-02-24T05:21:37.230Z,8.70
2019-02-24T05:24:07.747Z,8.88
2019-02-24T05:26:38.269Z,9.03
2019-02-24T05:29:08.811Z,8.97
2019-02-24T05:31:39.350Z,8.47
2019-02-24T05:34:09.883Z,8.77
2019-02-24T05:36:40.440Z,8.87
2019-02-24T05:39:11.485Z,8.93
2019-02-24T05:41:41.992Z,8.60
2019-02-24T05:44:12.524Z,8.83
2019-02-24T05:46:43.048Z,8.23
2019-02-24T05:49:14.448Z,8.77
2019-02-24T05:51:44.963Z,8.70
2019-02-24T05:54:16.108Z,8.27
2019-02-24T05:56:46.603Z,8.60
2019-02-24T05:59:17.101Z,8.83
2019-02-24T06:01:47.635Z,8.50
2019-02-24T06:04:18.172Z,8.80
2019-02-24T06:06:48.700Z,8.00
2019-02-24T06:09:19.204Z,9.03
2019-02-24T06:11:49.723Z,7.70
2019-02-24T06:14:20.409Z,8.87
2019-02-24T06:16:51.257Z,9.63
2019-02-24T06:19:21.827Z,8.63
2019-02-24T06:21:52.345Z,8.00
2019-02-24T06:24:23.299Z,8.57
2019-02-24T06:26:53.966Z,8.73
2019-02-24T06:29:24.476Z,8.33
2019-02-24T06:31:55.017Z,8.03
2019-02-24T06:34:26.058Z,8.50
2019-02-24T06:36:56.569Z,8.13
2019-02-24T06:39:27.098Z,8.33
2019-02-24T06:41:57.814Z,8.67
2019-02-24T06:44:28.323Z,8.50
2019-02-24T06:46:58.828Z,8.97
2019-02-24T06:49:29.362Z,8.07
2019-02-24T06:51:59.867Z,8.50
2019-02-24T06:54:30.426Z,8.17
2019-02-24T06:57:00.958Z,8.68
2019-02-24T06:59:31.447Z,8.87
2019-02-24T07:02:02.002Z,8.10
2019-02-24T07:04:32.505Z,7.80
2019-02-24T07:07:03.053Z,8.70
2019-02-24T07:09:33.565Z,8.43
2019-02-24T07:12:04.257Z,8.75
2019-02-24T07:14:34.778Z,9.17
2019-02-24T07:17:05.339Z,8.83
2019-02-24T07:19:36.215Z,8.47
2019-02-24T07:22:06.714Z,8.73
2019-02-24T07:24:37.299Z,8.97
2019-02-24T07:27:07.843Z,9.07
2019-02-24T07:29:38.356Z,9.47
2019-02-24T07:32:08.937Z,9.58
2019-02-24T07:34:39.451Z,10.10
2019-02-24T07:37:12.929Z,10.47
2019-02-24T07:39:42.097Z,9.53
2019-02-24T07:42:12.660Z,9.70
2019-02-24T07:44:43.321Z,10.10
2019-02-24T07:47:13.827Z,10.30
2019-02-24T07:49:44.330Z,10.40
2019-02-24T07:52:14.883Z,10.80
2019-02-24T07:54:45.389Z,11.20
2019-02-24T07:57:15.965Z,10.60
2019-02-24T07:59:46.471Z,11.03
2019-02-24T08:02:17.075Z,10.67
2019-02-24T08:04:47.581Z,11.57
2019-02-24T08:07:18.188Z,11.10
2019-02-24T08:09:48.708Z,11.90
2019-02-24T08:12:19.224Z,10.93
2019-02-24T08:14:50.754Z,11.70
2019-02-24T08:17:21.308Z,11.20
2019-02-24T08:19:52.339Z,12.40
2019-02-24T08:22:22.862Z,12.47
2019-02-24T08:24:53.495Z,12.23
2019-02-24T08:27:24.016Z,12.93
2019-02-24T08:29:54.563Z,12.93
2019-02-24T08:32:25.083Z,13.00
2019-02-24T08:34:55.647Z,13.53
2019-02-24T08:37:26.176Z,13.53
2019-02-24T08:39:56.709Z,13.62
2019-02-24T08:42:27.235Z,14.23
2019-02-24T08:44:57.985Z,13.63
2019-02-24T08:47:28.560Z,14.27
2019-02-24T08:49:59.179Z,14.03
2019-02-24T08:52:29.675Z,14.10
2019-02-24T08:55:00.289Z,14.33
2019-02-24T08:57:30.880Z,15.20
2019-02-24T09:00:01.411Z,15.43
2019-02-24T09:02:31.939Z,15.53
2019-02-24T09:05:02.497Z,14.93
2019-02-24T09:07:33.048Z,15.30
2019-02-24T09:10:03.617Z,15.07
2019-02-24T09:12:34.151Z,14.43
2019-02-24T09:15:04.986Z,14.37
2019-02-24T09:17:35.515Z,15.17
2019-02-24T09:20:06.268Z,15.70
2019-02-24T09:22:36.858Z,15.83
2019-02-24T09:25:07.384Z,15.08
2019-02-24T09:27:37.943Z,14.83
2019-02-24T09:30:09.079Z,16.03
2019-02-24T09:32:39.631Z,14.43
2019-02-24T09:35:10.202Z,16.02
2019-02-24T09:37:40.787Z,16.17
2019-02-24T09:40:11.301Z,15.60
2019-02-24T09:42:41.831Z,15.80
2019-02-24T09:45:12.459Z,15.67
2019-02-24T09:47:46.662Z,16.03
2019-02-24T09:50:15.232Z,14.93
2019-02-24T09:52:45.798Z,16.03
2019-02-24T09:55:16.348Z,15.43
2019-02-24T09:57:46.875Z,16.43
2019-02-24T10:00:17.457Z,15.57
2019-02-24T10:02:47.999Z,15.57
2019-02-24T10:05:18.527Z,17.30
2019-02-24T10:07:49.083Z,15.67
2019-02-24T10:10:19.635Z,14.43
2019-02-24T10:12:50.182Z,15.13
2019-02-24T10:15:20.759Z,15.43
2019-02-24T10:17:54.148Z,15.57
2019-02-24T10:20:25.035Z,16.37
2019-02-24T10:22:55.588Z,16.67
2019-02-24T10:25:26.154Z,16.17
2019-02-24T10:27:56.676Z,17.27
2019-02-24T10:30:27.267Z,17.03
2019-02-24T10:32:57.829Z,15.70
2019-02-24T10:35:28.378Z,16.10
2019-02-24T10:37:58.955Z,16.20
2019-02-24T10:40:31.082Z,14.60
2019-02-24T10:43:01.945Z,15.57
2019-02-24T10:45:32.579Z,14.93
2019-02-24T10:48:03.109Z,15.60
2019-02-24T10:50:33.727Z,15.77
2019-02-24T10:53:04.720Z,14.73
2019-02-24T10:55:35.254Z,14.80
2019-02-24T10:58:07.958Z,14.17
2019-02-24T11:00:38.949Z,15.40
2019-02-24T11:03:09.490Z,15.95
2019-02-24T11:05:40.067Z,14.20
2019-02-24T11:08:10.615Z,13.67
2019-02-24T11:10:41.158Z,13.33
2019-02-24T11:13:13.284Z,13.03
2019-02-24T11:15:43.830Z,12.67
2019-02-24T11:18:14.329Z,12.43
2019-02-24T11:20:44.878Z,12.13
2019-02-24T11:23:15.427Z,13.50
2019-02-24T11:25:45.995Z,12.57
2019-02-24T11:28:16.543Z,11.57
2019-02-24T11:30:47.120Z,11.87
2019-02-24T11:33:17.626Z,10.90
2019-02-24T11:35:48.156Z,11.97
2019-02-24T11:38:18.762Z,11.70
2019-02-24T11:40:49.272Z,13.37
2019-02-24T11:43:19.803Z,12.17
2019-02-24T11:45:50.371Z,12.33
2019-02-24T11:48:20.961Z,12.20
2019-02-24T11:50:51.502Z,11.50
2019-02-24T11:53:22.230Z,11.53
2019-02-24T11:55:53.906Z,11.73
2019-02-24T11:58:24.428Z,10.60
2019-02-24T12:00:54.999Z,11.37
2019-02-24T12:03:25.591Z,11.17
2019-02-24T12:05:56.086Z,10.00
2019-02-24T12:08:26.639Z,10.67
2019-02-24T12:10:57.199Z,10.37
2019-02-24T12:13:27.762Z,10.10
2019-02-24T12:15:58.320Z,10.03
2019-02-24T12:18:28.863Z,11.00
2019-02-24T12:20:59.380Z,9.73
2019-02-24T12:23:29.907Z,9.73
2019-02-24T12:26:00.473Z,9.77
2019-02-24T12:28:31.025Z,10.40
2019-02-24T12:31:01.679Z,10.40
2019-02-24T12:33:32.364Z,9.97
2019-02-24T12:36:02.893Z,9.43
2019-02-24T12:38:33.778Z,9.60
2019-02-24T12:41:04.376Z,9.03
2019-02-24T12:43:35.048Z,9.40
2019-02-24T12:46:05.571Z,10.17
2019-02-24T12:48:36.546Z,9.47
2019-02-24T12:51:07.110Z,9.20
2019-02-24T12:53:37.996Z,9.67
2019-02-24T12:56:08.504Z,9.60
2019-02-24T12:58:39.323Z,12.27
2019-02-24T13:01:09.835Z,12.67
2019-02-24T13:03:40.503Z,11.77
2019-02-24T13:06:11.027Z,13.80
2019-02-24T13:08:41.561Z,12.70
2019-02-24T13:11:12.574Z,13.20
2019-02-24T13:13:43.180Z,13.33
2019-02-24T13:16:14.023Z,14.17
2019-02-24T13:18:44.575Z,15.10
2019-02-24T13:21:15.086Z,14.73
2019-02-24T13:23:45.793Z,14.63
2019-02-24T13:26:16.686Z,13.63
2019-02-24T13:28:50.454Z,14.87
2019-02-24T13:31:19.450Z,13.57
2019-02-24T13:33:49.963Z,14.27
2019-02-24T13:36:20.925Z,14.10
2019-02-24T13:38:51.660Z,14.83
2019-02-24T13:41:22.239Z,14.00
2019-02-24T13:43:52.798Z,14.73
2019-02-24T13:46:23.350Z,14.83
2019-02-24T13:48:54.260Z,13.87
2019-02-24T13:51:24.764Z,13.67
2019-02-24T13:53:55.291Z,15.17
2019-02-24T13:56:30.112Z,13.17
2019-02-24T13:59:00.663Z,14.13
2019-02-24T14:01:31.976Z,15.13
2019-02-24T14:04:02.470Z,16.03
2019-02-24T14:06:33.074Z,15.37
2019-02-24T14:09:03.715Z,16.90
2019-02-24T14:11:34.240Z,17.03
2019-02-24T14:14:04.826Z,17.77
2019-02-24T14:16:35.355Z,18.27
2019-02-24T14:19:05.911Z,18.67
2019-02-24T14:21:36.435Z,19.27
2019-02-24T14:24:06.926Z,19.03
2019-02-24T14:26:37.578Z,18.57
2019-02-24T14:29:08.127Z,20.03
2019-02-24T14:31:38.727Z,20.13
2019-02-24T14:34:09.355Z,18.52
2019-02-24T14:36:40.831Z,18.33
2019-02-24T14:39:11.878Z,17.83
2019-02-24T14:41:42.387Z,18.77
2019-02-24T14:44:12.938Z,18.57
2019-02-24T14:46:44.823Z,18.70
2019-02-24T14:49:16.081Z,19.07
2019-02-24T14:51:47.947Z,18.83
2019-02-24T14:54:20.266Z,19.33
2019-02-24T14:56:53.613Z,18.87
2019-02-24T14:59:24.609Z,18.30
2019-02-24T15:01:56.248Z,17.80
2019-02-24T15:04:27.492Z,18.03
2019-02-24T15:06:58.163Z,18.13
2019-02-24T15:09:29.009Z,18.13
2019-02-24T15:12:01.110Z,18.27
2019-02-24T15:14:32.329Z,19.23
2019-02-24T15:17:02.943Z,20.40
2019-02-24T15:19:33.507Z,19.43
2019-02-24T15:22:04.618Z,19.67
2019-02-24T15:24:35.167Z,20.83
2019-02-24T15:27:05.684Z,20.97
2019-02-24T15:29:36.234Z,20.20
2019-02-24T15:32:07.244Z,20.60
2019-02-24T15:34:39.133Z,20.07
2019-02-24T15:37:09.711Z,20.15
2019-02-24T15:39:40.280Z,20.63
2019-02-24T15:42:11.604Z,22.00
2019-02-24T15:44:42.789Z,20.90
2019-02-24T15:47:13.839Z,21.93
2019-02-24T15:49:44.438Z,21.77
2019-02-24T15:52:17.899Z,22.77
2019-02-24T15:54:49.527Z,22.40
2019-02-24T15:57:20.476Z,22.17
2019-02-24T15:59:51.018Z,24.67
2019-02-24T16:02:21.767Z,24.37
2019-02-24T16:04:52.331Z,22.73
2019-02-24T16:07:23.000Z,23.33
2019-02-24T16:09:53.565Z,23.93
2019-02-24T16:12:24.575Z,24.17
2019-02-24T16:14:55.271Z,24.17
2019-02-24T16:17:25.977Z,24.83
2019-02-24T16:19:56.499Z,24.47
2019-02-24T16:22:27.160Z,24.90
2019-02-24T16:24:57.689Z,26.73
2019-02-24T16:27:28.261Z,26.27
2019-02-24T16:29:58.782Z,26.67
2019-02-24T16:32:29.443Z,25.27
2019-02-24T16:35:00.266Z,27.67
2019-02-24T16:37:30.757Z,26.77
2019-02-24T16:40:01.308Z,25.83
2019-02-24T16:42:31.980Z,26.63
2019-02-24T16:45:02.683Z,25.67
2019-02-24T16:47:33.282Z,25.20
2019-02-24T16:50:04.408Z,25.43
2019-02-24T16:52:35.155Z,26.37
2019-02-24T16:55:06.038Z,22.90
2019-02-24T16:57:36.571Z,23.80
2019-02-24T17:00:09.614Z,23.57
2019-02-24T17:02:40.147Z,24.13
2019-02-24T17:05:10.668Z,21.97
2019-02-24T17:07:41.198Z,21.73
2019-02-24T17:10:13.073Z,20.30
2019-02-24T17:12:43.638Z,21.10
2019-02-24T17:15:14.935Z,20.90
2019-02-24T17:17:45.528Z,20.83
2019-02-24T17:20:17.131Z,20.03
2019-02-24T17:22:47.675Z,20.63
2019-02-24T17:25:18.348Z,21.20
2019-02-24T17:27:49.031Z,20.63
2019-02-24T17:30:23.821Z,20.67
2019-02-24T17:32:55.173Z,20.37
2019-02-24T17:35:26.211Z,21.20
2019-02-24T17:37:56.743Z,18.90
2019-02-24T17:40:27.270Z,19.60
2019-02-24T17:42:57.927Z,19.77
2019-02-24T17:45:28.791Z,19.83
2019-02-24T17:47:59.819Z,18.53
2019-02-24T17:50:30.343Z,19.60
2019-02-24T17:53:01.124Z,19.03
2019-02-24T17:55:31.667Z,19.07
2019-02-24T17:58:05.260Z,19.00
2019-02-24T18:00:40.962Z,18.33
2019-02-24T18:03:11.467Z,18.82
2019-02-24T18:05:42.987Z,19.33
2019-02-24T18:08:13.584Z,19.73
2019-02-24T18:10:44.080Z,19.20
2019-02-24T18:13:14.611Z,19.77
2019-02-24T18:15:45.668Z,19.17
2019-02-24T18:18:16.156Z,19.63
2019-02-24T18:20:46.715Z,18.37
2019-02-24T18:23:17.871Z,19.03
2019-02-24T18:25:48.515Z,20.63
2019-02-24T18:28:19.075Z,19.93
2019-02-24T18:30:50.191Z,20.37
2019-02-24T18:33:25.073Z,20.30
2019-02-24T18:35:56.396Z,19.97
2019-02-24T18:38:28.056Z,19.87
2019-02-24T18:40:59.040Z,20.23
2019-02-24T18:43:30.213Z,19.47
2019-02-24T18:46:01.216Z,19.50
2019-02-24T18:48:31.752Z,18.47
2019-02-24T18:51:02.319Z,19.50
2019-02-24T18:53:32.899Z,19.27
2019-02-24T18:56:03.403Z,20.47
2019-02-24T18:58:36.185Z,19.07
2019-02-24T19:01:06.763Z,20.02
2019-02-24T19:03:37.712Z,19.30
2019-02-24T19:06:08.295Z,20.37
2019-02-24T19:08:38.822Z,20.30
2019-02-24T19:11:09.387Z,20.23
2019-02-24T19:13:40.324Z,18.80
2019-02-24T19:16:10.859Z,19.90
2019-02-24T19:18:41.679Z,19.50
2019-02-24T19:21:13.795Z,19.10
2019-02-24T19:23:44.639Z,18.77
2019-02-24T19:26:15.260Z,18.93
2019-02-24T19:28:45.771Z,19.25
2019-02-24T19:31:16.362Z,19.67
2019-02-24T19:34:06.986Z,18.97
2019-02-24T19:36:55.213Z,18.93
2019-02-24T19:39:44.482Z,20.00
2019-02-24T19:42:33.452Z,18.60
2019-02-24T19:45:22.111Z,19.80
2019-02-24T19:47:53.203Z,21.43
2019-02-24T19:50:23.988Z,20.30
2019-02-24T19:52:54.605Z,18.67
2019-02-24T19:55:25.712Z,21.10
2019-02-24T19:57:56.765Z,19.67
2019-02-24T20:00:27.286Z,18.50
2019-02-24T20:02:57.851Z,18.17
2019-02-24T20:05:28.428Z,17.97
2019-02-24T20:07:58.971Z,18.73
2019-02-24T20:10:29.658Z,18.93
2019-02-24T20:13:00.213Z,18.37
2019-02-24T20:15:31.667Z,17.43
2019-02-24T20:18:02.280Z,18.20
2019-02-24T20:20:32.819Z,17.10
2019-02-24T20:23:03.388Z,17.93
2019-02-24T20:25:33.912Z,17.53
2019-02-24T20:28:04.947Z,18.33
2019-02-24T20:30:35.488Z,18.87
2019-02-24T20:33:06.057Z,16.57
2019-02-24T20:35:36.605Z,16.80
2019-02-24T20:38:07.147Z,18.90
2019-02-24T20:40:37.691Z,18.13
2019-02-24T20:43:10.670Z,17.60
2019-02-24T20:45:41.209Z,16.77
2019-02-24T20:48:11.740Z,16.77
2019-02-24T20:50:42.337Z,18.03
2019-02-24T20:53:31.363Z,17.90
2019-02-24T20:56:01.335Z,17.03
2019-02-24T20:58:31.831Z,17.00
2019-02-24T21:01:02.368Z,16.97
2019-02-24T21:03:32.912Z,17.90
2019-02-24T21:06:03.518Z,17.53
2019-02-24T21:08:34.104Z,18.30
2019-02-24T21:11:05.149Z,23.17
2019-02-24T21:13:35.644Z,21.37
2019-02-24T21:16:06.207Z,19.80
2019-02-24T21:18:41.450Z,20.30
2019-02-24T21:21:12.001Z,18.30
2019-02-24T21:23:42.652Z,17.53
2019-02-24T21:26:13.204Z,18.13
2019-02-24T21:28:43.723Z,18.47
2019-02-24T21:31:14.251Z,16.30
2019-02-24T21:33:44.766Z,17.40
2019-02-24T21:36:15.404Z,16.63
2019-02-24T21:38:45.923Z,17.60
2019-02-24T21:41:16.519Z,18.87
2019-02-24T21:43:47.079Z,17.20
2019-02-24T21:46:17.615Z,17.30
2019-02-24T21:48:48.175Z,16.30
2019-02-24T21:51:18.875Z,16.93
2019-02-24T21:53:49.429Z,16.00
2019-02-24T21:56:20.049Z,16.40
2019-02-24T21:58:50.591Z,16.53
2019-02-24T22:01:21.162Z,15.73
2019-02-24T22:03:52.049Z,16.40
2019-02-24T22:06:22.629Z,16.77
2019-02-24T22:08:53.163Z,15.53
2019-02-24T22:11:23.704Z,14.90
2019-02-24T22:13:54.380Z,15.00
2019-02-24T22:16:24.927Z,15.50
2019-02-24T22:18:55.432Z,16.93
2019-02-24T22:21:28.243Z,15.77
2019-02-24T22:23:58.828Z,15.57
2019-02-24T22:26:29.364Z,16.32
2019-02-24T22:28:59.942Z,23.03
2019-02-24T22:31:30.503Z,18.77
2019-02-24T22:34:01.028Z,17.40
2019-02-24T22:36:31.590Z,16.67
2019-02-24T22:39:02.128Z,16.03
2019-02-24T22:41:32.629Z,15.20
2019-02-24T22:44:03.599Z,16.27
2019-02-24T22:46:34.860Z,15.23
2019-02-24T22:49:05.390Z,14.57
2019-02-24T22:51:36.021Z,14.93
2019-02-24T22:54:06.660Z,14.40
2019-02-24T22:56:37.202Z,14.13
2019-02-24T22:59:07.719Z,14.57
2019-02-24T23:01:39.729Z,14.60
2019-02-24T23:04:12.130Z,15.60
2019-02-24T23:06:42.689Z,14.73
2019-02-24T23:09:19.042Z,15.33
2019-02-24T23:11:49.987Z,16.47
2019-02-24T23:14:20.586Z,15.47
2019-02-24T23:16:51.096Z,16.70
2019-02-24T23:19:21.940Z,15.43
2019-02-24T23:21:52.462Z,16.33
2019-02-24T23:24:24.182Z,15.37
2019-02-24T23:26:54.744Z,16.57
2019-02-24T23:29:25.296Z,15.83
2019-02-24T23:31:55.825Z,16.10
2019-02-24T23:34:26.397Z,15.83
2019-02-24T23:36:56.896Z,16.50
2019-02-24T23:39:27.404Z,16.70
2019-02-24T23:41:57.961Z,15.00
2019-02-24T23:44:30.376Z,15.50
2019-02-24T23:47:00.954Z,15.83
2019-02-24T23:49:31.591Z,16.60
2019-02-24T23:52:02.130Z,14.93
2019-02-24T23:54:32.646Z,15.83
2019-02-24T23:57:03.244Z,15.17
2019-02-24T23:59:33.773Z,15.17
